Williamstown, WV

7:22 PM EST on March 06, 2015 (GMT -0500)
Wood County Wilson | Change Station
CLOSE
Current Station
Airport
Location: Parkersburg,
Elevation: 860 ft
Nearby Weather Stations

Elev 860 ft 39.35 °N, 81.44 °W | Updated 29 minutes ago

Overcast
Overcast
20 °F
Feels Like 20 °F
N
0
Wind Variable Wind from North

Today
High -- | Low -- °F
--% Chance of Precip.
Yesterday
High -- | Low -- °F
Precip. -- in
6:51 AM 6:23 PM
Full, 99% visible
Pressure 30.50 in
Visibility 10.0 miles
Clouds Overcast 2000 ft
Dew Point 14 °F
Humidity 78%
Rainfall 0.00 in
Snow Depth Not available.
UV 0 out of 12
Pollen 1.60 out of 12
Air Quality Not available.
Flu Activity Not available.
METAR KPKB 062353Z 00000KT 10SM OVC020 M07/M10 A3044 RMK AO2 SLP326 60000 T10671100 11056 21072 56009

More Conditions Fewer Conditions

Pressure 30.50 in
Visibility 10.0 miles
Clouds Overcast 2000 ft
Dew Point 14 °F
Humidity 78%
Rainfall 0.00 in
Snow Depth Not available.
UV 0 out of 12
Pollen 1.60 out of 12
Air Quality Not available.
Flu Activity Not available.
METAR KPKB 062353Z 00000KT 10SM OVC020 M07/M10 A3044 RMK AO2 SLP326 60000 T10671100 11056 21072 56009

More Conditions Fewer Conditions

10-Day Weather Forecast

Almanac

Astronomy

Mar. 06, 2015 Rise Set
Actual Time
Civil Twilight
Nautical Twilight
Astronomical Twilight
Moon
Length of Visible Light
Length of Day
Tomorrow will be .
, % of the Moon is Illuminated

Today's Extremes

State Highs State Lows

Community

WunderPhotos

Upload Photos

1,803,468 photos uploaded!

WunderBlogs® & News

Nearby

Air Quality

  Air Quality AQ Index Pollutant
Not available.

Snow Depth

Station Depth Elevation

Earthquake Activity

City Distance Mag. Time & Date
Minimum magnitude displayed is 2.5.

Coastal Water Temperatures

Place Temperature

Nearby Weather Stations